Time;durP1;ratioP1;P1;durP2;ratioP2;P2;SDS_P1;SDS_P2;PMS_P1;PMS_P2;Temp;Humidity;BMP_temperature;BMP_pressure;BME280_temperature;BME280_humidity;BME280_pressure;Samples;Min_cycle;Max_cycle;Signal;HPM_P1;HPM_P2
2022/06/12 00:00:07;;;;;;;3.03;1.40;;;;;;;;;;4991447;28;96995;-71
2022/06/12 00:02:34;;;;;;;1.17;0.98;;;;;;;;;;4992022;28;95664;-72
2022/06/12 00:05:01;;;;;;;2.60;1.48;;;;;;;;;;4991587;28;97201;-71
2022/06/12 00:07:27;;;;;;;6.10;1.45;;;;;;;;;;4991724;28;97748;-71
2022/06/12 00:09:55;;;;;;;0.85;0.85;;;;;;;;;;4992358;28;95320;-71
2022/06/12 00:12:22;;;;;;;2.15;1.00;;;;;;;;;;4991611;28;96450;-71
2022/06/12 00:14:49;;;;;;;1.98;1.20;;;;;;;;;;4990655;28;99093;-72
2022/06/12 00:17:15;;;;;;;2.83;1.20;;;;;;;;;;4993652;28;95220;-72
2022/06/12 00:19:44;;;;;;;3.47;1.02;;;;;;;;;;4991083;28;96987;-71
2022/06/12 00:22:11;;;;;;;1.58;1.10;;;;;;;;;;4990821;28;95465;-71
2022/06/12 00:24:37;;;;;;;1.75;1.13;;;;;;;;;;4990834;28;96323;-71
2022/06/12 00:27:04;;;;;;;2.25;1.30;;;;;;;;;;4990467;28;96493;-71
2022/06/12 00:29:32;;;;;;;1.35;0.90;;;;;;;;;;4991266;28;95425;-71
2022/06/12 00:32:06;;;;;;;1.35;0.90;;;;;;;;;;4992077;28;97049;-71
2022/06/12 00:34:34;;;;;;;2.92;1.17;;;;;;;;;;4990333;28;97220;-71
2022/06/12 00:37:01;;;;;;;2.33;1.00;;;;;;;;;;4993212;28;95548;-71
2022/06/12 00:39:29;;;;;;;4.20;1.73;;;;;;;;;;4990445;28;97366;-71
2022/06/12 00:41:56;;;;;;;6.10;1.90;;;;;;;;;;4991820;28;95001;-71
2022/06/12 00:44:25;;;;;;;9.32;3.03;;;;;;;;;;4990119;28;95681;-71
2022/06/12 00:46:54;;;;;;;6.82;2.03;;;;;;;;;;4987721;28;97241;-71
2022/06/12 00:49:32;;;;;;;4.72;1.80;;;;;;;;;;4990178;28;95933;-71
2022/06/12 00:52:10;;;;;;;3.25;1.50;;;;;;;;;;4991566;28;96810;-71
2022/06/12 00:54:37;;;;;;;2.97;1.50;;;;;;;;;;4989929;28;97350;-71
2022/06/12 00:57:05;;;;;;;5.03;1.38;;;;;;;;;;4990993;28;95274;-71
2022/06/12 00:59:34;;;;;;;4.03;1.95;;;;;;;;;;4993496;28;96824;-70
2022/06/12 01:02:03;;;;;;;3.10;1.35;;;;;;;;;;4991502;28;95090;-71
2022/06/12 01:07:16;;;;;;;6.78;2.03;;;;;;;;;;4993712;28;97313;-71
2022/06/12 01:09:44;;;;;;;1.60;1.00;;;;;;;;;;4994043;28;95305;-71
2022/06/12 01:12:13;;;;;;;2.58;1.20;;;;;;;;;;4994986;28;96156;-71
2022/06/12 01:14:42;;;;;;;1.98;1.10;;;;;;;;;;4994396;28;97358;-71
2022/06/12 01:17:10;;;;;;;3.40;1.30;;;;;;;;;;4989158;28;95207;-71
2022/06/12 01:19:41;;;;;;;1.50;1.15;;;;;;;;;;4994256;28;95872;-71
2022/06/12 01:22:13;;;;;;;3.22;1.52;;;;;;;;;;4996820;28;97334;-71
2022/06/12 01:24:58;;;;;;;7.28;1.45;;;;;;;;;;4992097;28;96913;-71
2022/06/12 01:27:28;;;;;;;1.92;0.98;;;;;;;;;;4992497;28;97843;-71
2022/06/12 01:30:12;;;;;;;4.22;1.73;;;;;;;;;;4993129;28;95814;-71
2022/06/12 01:32:45;;;;;;;4.03;1.13;;;;;;;;;;4992897;28;96771;-71
2022/06/12 01:35:17;;;;;;;3.78;1.38;;;;;;;;;;4992411;28;96376;-71
2022/06/12 01:37:47;;;;;;;6.15;1.13;;;;;;;;;;4993576;28;95430;-72
2022/06/12 01:40:16;;;;;;;5.40;1.42;;;;;;;;;;4993976;28;96850;-71
2022/06/12 01:42:57;;;;;;;2.42;1.23;;;;;;;;;;4993463;28;97345;-71
2022/06/12 01:45:43;;;;;;;3.38;1.50;;;;;;;;;;4996739;28;95500;-71
2022/06/12 01:48:15;;;;;;;2.47;1.20;;;;;;;;;;4994118;28;98520;-71
2022/06/12 01:50:51;;;;;;;2.80;1.50;;;;;;;;;;4994477;28;95239;-71
2022/06/12 01:53:20;;;;;;;9.98;1.45;;;;;;;;;;4993067;28;95769;-71
2022/06/12 01:56:02;;;;;;;3.78;1.60;;;;;;;;;;4990795;28;96317;-71
2022/06/12 01:58:46;;;;;;;2.47;1.00;;;;;;;;;;4974480;28;95183;-71
2022/06/12 02:01:17;;;;;;;3.25;1.73;;;;;;;;;;4984324;28;97258;-71
2022/06/12 02:03:50;;;;;;;7.03;1.98;;;;;;;;;;4992126;28;97338;-72
2022/06/12 02:06:20;;;;;;;3.17;1.75;;;;;;;;;;4994046;28;95355;-72
2022/06/12 02:09:07;;;;;;;3.08;1.30;;;;;;;;;;4996684;28;96767;-71
2022/06/12 02:14:49;;;;;;;4.57;1.57;;;;;;;;;;4970863;28;97254;-71
2022/06/12 02:17:19;;;;;;;3.90;1.75;;;;;;;;;;4952440;28;97083;-71
2022/06/12 02:19:46;;;;;;;5.50;1.73;;;;;;;;;;4972960;28;95432;-71
2022/06/12 02:22:18;;;;;;;4.03;1.38;;;;;;;;;;4980279;28;96865;-71
2022/06/12 02:24:48;;;;;;;4.30;1.43;;;;;;;;;;4991226;28;97107;-72
2022/06/12 02:27:18;;;;;;;4.28;1.58;;;;;;;;;;4993505;28;95378;-71
2022/06/12 02:29:49;;;;;;;1.55;1.20;;;;;;;;;;4993420;28;96834;-72
2022/06/12 02:32:23;;;;;;;5.70;1.77;;;;;;;;;;4995668;28;97348;-72
2022/06/12 02:34:58;;;;;;;6.40;1.50;;;;;;;;;;4992063;28;96696;-71
2022/06/12 02:37:31;;;;;;;4.68;1.33;;;;;;;;;;4992446;28;96575;-71
2022/06/12 02:39:59;;;;;;;3.22;1.45;;;;;;;;;;4992165;28;95367;-71
2022/06/12 02:42:37;;;;;;;3.40;1.63;;;;;;;;;;4991034;28;96332;-71
2022/06/12 02:45:10;;;;;;;1.55;1.10;;;;;;;;;;4991902;28;97375;-71
2022/06/12 02:47:38;;;;;;;4.47;1.65;;;;;;;;;;4992968;28;95226;-71
2022/06/12 02:50:06;;;;;;;2.78;1.52;;;;;;;;;;4992404;28;97258;-71
2022/06/12 02:52:36;;;;;;;3.50;1.77;;;;;;;;;;4995776;28;98606;-71
2022/06/12 02:55:25;;;;;;;3.55;1.35;;;;;;;;;;4992254;28;95173;-71
2022/06/12 02:58:00;;;;;;;2.03;1.35;;;;;;;;;;4973010;28;97576;-71
2022/06/12 03:00:40;;;;;;;2.65;1.55;;;;;;;;;;4973687;28;95200;-71
2022/06/12 03:03:13;;;;;;;3.72;1.80;;;;;;;;;;4987784;28;97214;-71
2022/06/12 03:05:42;;;;;;;3.92;2.10;;;;;;;;;;4989398;28;97264;-71
2022/06/12 03:08:14;;;;;;;1.95;1.40;;;;;;;;;;4993468;28;95196;-71
2022/06/12 03:10:46;;;;;;;4.55;2.00;;;;;;;;;;4992765;28;97190;-71
2022/06/12 03:13:13;;;;;;;8.15;1.73;;;;;;;;;;4991216;28;96084;-71
2022/06/12 03:15:43;;;;;;;4.75;1.85;;;;;;;;;;4994435;28;95382;-71
2022/06/12 03:18:12;;;;;;;3.75;1.52;;;;;;;;;;4992750;28;97736;-71
2022/06/12 03:20:53;;;;;;;2.92;1.50;;;;;;;;;;4991386;28;95470;-71
2022/06/12 03:23:28;;;;;;;2.75;1.65;;;;;;;;;;4990585;28;96777;-71
2022/06/12 03:25:56;;;;;;;4.45;1.73;;;;;;;;;;4991431;28;97476;-71
2022/06/12 03:28:31;;;;;;;5.88;1.90;;;;;;;;;;4992875;28;95515;-71
2022/06/12 03:30:57;;;;;;;6.72;1.85;;;;;;;;;;4992990;28;96827;-71
2022/06/12 03:33:28;;;;;;;5.47;2.70;;;;;;;;;;4988398;28;97647;-71
2022/06/12 03:36:04;;;;;;;2.95;1.52;;;;;;;;;;4991076;28;95283;-71
2022/06/12 03:38:38;;;;;;;4.55;1.80;;;;;;;;;;4995495;28;96819;-72
2022/06/12 03:41:17;;;;;;;4.00;1.67;;;;;;;;;;4992701;28;96330;-72
2022/06/12 03:43:51;;;;;;;3.38;1.92;;;;;;;;;;4989197;28;96878;-71
2022/06/12 03:46:18;;;;;;;4.00;1.88;;;;;;;;;;4991032;28;96195;-71
2022/06/12 03:49:04;;;;;;;3.42;1.60;;;;;;;;;;4992623;28;95880;-71
2022/06/12 03:51:39;;;;;;;3.50;1.70;;;;;;;;;;4992594;28;96775;-71
2022/06/12 03:54:23;;;;;;;6.28;2.00;;;;;;;;;;4989089;28;97425;-71
2022/06/12 03:59:40;;;;;;;4.68;2.10;;;;;;;;;;4992195;28;96469;-71
2022/06/12 04:02:08;;;;;;;6.43;2.00;;;;;;;;;;4994298;28;96931;-71
2022/06/12 04:04:36;;;;;;;5.05;2.05;;;;;;;;;;4989354;28;98421;-71
2022/06/12 04:07:05;;;;;;;3.70;1.88;;;;;;;;;;4989670;28;96228;-72
2022/06/12 04:09:33;;;;;;;4.35;1.85;;;;;;;;;;4992330;28;95383;-71
2022/06/12 04:12:02;;;;;;;4.80;1.83;;;;;;;;;;4992257;28;97902;-71
2022/06/12 04:14:31;;;;;;;5.95;1.60;;;;;;;;;;4989050;28;96440;-71
2022/06/12 04:16:59;;;;;;;8.73;1.70;;;;;;;;;;4990632;28;96175;-71
2022/06/12 04:19:26;;;;;;;6.82;1.50;;;;;;;;;;4989068;28;96842;-71
2022/06/12 04:22:04;;;;;;;3.78;1.42;;;;;;;;;;4991008;28;97492;-72
2022/06/12 04:24:49;;;;;;;8.50;2.08;;;;;;;;;;4994031;28;95165;-72
2022/06/12 04:27:20;;;;;;;3.47;1.77;;;;;;;;;;4991948;28;97382;-72
2022/06/12 04:29:51;;;;;;;5.10;1.80;;;;;;;;;;4990298;28;95445;-71
2022/06/12 20:20:06;;;;;;;5.97;1.85;;;;;;;;;;5029661;28;95705;-71
2022/06/12 20:22:33;;;;;;;4.50;2.00;;;;;;;;;;5025721;27;97320;-71
2022/06/12 20:25:00;;;;;;;4.05;2.10;;;;;;;;;;5027448;28;95379;-70
2022/06/12 20:27:26;;;;;;;3.95;1.90;;;;;;;;;;5023361;27;95727;-71
2022/06/12 20:29:52;;;;;;;5.32;1.95;;;;;;;;;;5023182;28;97181;-72
2022/06/12 20:32:19;;;;;;;3.97;1.80;;;;;;;;;;5027528;28;95982;-71
2022/06/12 20:34:45;;;;;;;5.38;1.88;;;;;;;;;;5028150;27;96889;-70
2022/06/12 20:37:12;;;;;;;7.35;2.33;;;;;;;;;;5027751;27;96809;-71
2022/06/12 20:39:38;;;;;;;5.47;2.20;;;;;;;;;;5030410;28;95316;-72
2022/06/12 20:42:05;;;;;;;3.20;1.75;;;;;;;;;;5026027;27;96037;-72
2022/06/12 20:44:32;;;;;;;5.65;2.20;;;;;;;;;;5027500;27;95233;-71
2022/06/12 20:46:58;;;;;;;5.88;2.35;;;;;;;;;;5027602;27;96108;-71
2022/06/12 20:49:25;;;;;;;3.35;2.00;;;;;;;;;;5022722;28;96912;-71
2022/06/12 20:51:52;;;;;;;4.05;1.85;;;;;;;;;;5026379;28;95299;-71
2022/06/12 20:54:18;;;;;;;5.20;2.50;;;;;;;;;;5020302;28;96769;-71
2022/06/12 20:56:44;;;;;;;4.00;2.30;;;;;;;;;;5024146;28;97417;-71
2022/06/12 20:59:11;;;;;;;7.35;2.10;;;;;;;;;;5028217;28;95355;-71
2022/06/12 21:01:37;;;;;;;5.35;1.80;;;;;;;;;;5030344;27;95799;-72
2022/06/12 21:04:04;;;;;;;3.30;1.85;;;;;;;;;;5025831;28;95395;-71
2022/06/12 21:06:33;;;;;;;7.88;2.25;;;;;;;;;;5027978;28;96814;-72
2022/06/12 21:09:00;;;;;;;5.30;2.17;;;;;;;;;;5020382;27;96224;-73
2022/06/12 21:11:27;;;;;;;3.10;1.85;;;;;;;;;;5025871;27;97547;-71
2022/06/12 21:13:53;;;;;;;5.88;2.33;;;;;;;;;;5008997;28;96673;-72
2022/06/12 21:16:19;;;;;;;4.10;1.77;;;;;;;;;;5008859;28;96043;-72
2022/06/12 21:18:47;;;;;;;9.98;2.47;;;;;;;;;;5007693;28;95488;-72
2022/06/12 21:21:16;;;;;;;4.93;2.42;;;;;;;;;;5026748;28;96349;-72
2022/06/12 21:23:49;;;;;;;3.65;2.05;;;;;;;;;;5014083;27;96475;-72
2022/06/12 21:26:21;;;;;;;7.82;2.42;;;;;;;;;;5020181;28;96280;-73
2022/06/12 21:28:48;;;;;;;5.00;2.08;;;;;;;;;;5028193;28;97348;-72
2022/06/12 21:31:17;;;;;;;3.38;1.75;;;;;;;;;;5013844;28;95395;-71
2022/06/12 21:33:44;;;;;;;5.43;2.10;;;;;;;;;;5012940;28;95576;-72
2022/06/12 21:36:11;;;;;;;4.38;1.95;;;;;;;;;;5014126;28;96585;-72
2022/06/12 21:38:38;;;;;;;6.57;2.20;;;;;;;;;;5014997;28;95379;-72
2022/06/12 21:41:05;;;;;;;8.63;2.90;;;;;;;;;;5013630;28;96865;-71
2022/06/12 21:43:31;;;;;;;4.40;1.90;;;;;;;;;;5001630;28;97028;-72
2022/06/12 21:45:58;;;;;;;10.93;2.35;;;;;;;;;;4998240;28;95430;-72
2022/06/12 21:48:27;;;;;;;6.30;2.38;;;;;;;;;;4994720;28;97472;-72
2022/06/12 21:50:53;;;;;;;3.67;1.98;;;;;;;;;;4994497;28;95210;-72
2022/06/12 21:56:05;;;;;;;6.35;2.30;;;;;;;;;;5011523;28;97307;-72
2022/06/12 21:58:31;;;;;;;4.93;2.30;;;;;;;;;;5012044;28;96077;-72
2022/06/12 22:00:57;;;;;;;5.30;2.30;;;;;;;;;;5013812;28;97022;-72
2022/06/12 22:03:24;;;;;;;5.75;2.58;;;;;;;;;;5008403;28;95693;-72
2022/06/12 22:05:51;;;;;;;4.25;2.28;;;;;;;;;;5012559;28;96603;-72
2022/06/12 22:08:17;;;;;;;5.57;2.35;;;;;;;;;;5015991;28;95947;-73
2022/06/12 22:10:48;;;;;;;3.88;2.20;;;;;;;;;;5012632;28;96273;-71
2022/06/12 22:13:14;;;;;;;4.82;2.47;;;;;;;;;;5011123;28;98207;-71
2022/06/12 22:15:41;;;;;;;10.18;2.67;;;;;;;;;;5012160;28;97406;-72
2022/06/12 22:18:07;;;;;;;3.88;2.38;;;;;;;;;;5012723;28;95190;-71
2022/06/12 22:20:33;;;;;;;5.30;2.40;;;;;;;;;;5012481;28;96792;-72
2022/06/12 22:23:20;;;;;;;4.68;2.20;;;;;;;;;;5010420;28;97154;-73
2022/06/12 22:25:47;;;;;;;5.00;2.45;;;;;;;;;;5008119;28;95338;-73
2022/06/12 22:28:14;;;;;;;4.30;2.33;;;;;;;;;;5013686;28;96894;-73
2022/06/12 22:30:40;;;;;;;4.35;2.30;;;;;;;;;;5016664;28;95381;-72
2022/06/12 22:33:06;;;;;;;3.92;2.13;;;;;;;;;;5011532;28;96847;-73
2022/06/12 22:35:33;;;;;;;6.00;2.47;;;;;;;;;;5012326;28;96430;-72
2022/06/12 22:37:59;;;;;;;4.65;2.15;;;;;;;;;;5011970;28;95341;-73
2022/06/12 22:40:27;;;;;;;4.75;2.10;;;;;;;;;;5012484;28;96706;-73
2022/06/12 22:42:53;;;;;;;6.95;2.78;;;;;;;;;;5012196;28;97160;-72
2022/06/12 22:45:19;;;;;;;9.20;2.90;;;;;;;;;;5006556;28;95248;-72
2022/06/12 22:47:47;;;;;;;5.72;2.50;;;;;;;;;;5012948;28;96870;-72
2022/06/12 22:50:14;;;;;;;5.88;2.40;;;;;;;;;;5016861;28;97357;-73
2022/06/12 22:52:41;;;;;;;6.40;2.70;;;;;;;;;;5011672;28;98328;-73
2022/06/12 22:55:11;;;;;;;5.53;2.40;;;;;;;;;;5012654;28;98529;-72
2022/06/12 22:57:41;;;;;;;6.60;2.60;;;;;;;;;;5012861;28;95352;-72
2022/06/12 23:00:15;;;;;;;3.35;2.20;;;;;;;;;;5012221;28;96192;-73
2022/06/12 23:02:45;;;;;;;5.05;2.22;;;;;;;;;;5012908;28;96455;-72
2022/06/12 23:05:12;;;;;;;4.18;2.50;;;;;;;;;;5012167;28;95296;-72
2022/06/12 23:07:39;;;;;;;4.32;2.17;;;;;;;;;;5013124;28;96933;-72
2022/06/12 23:10:06;;;;;;;7.07;2.45;;;;;;;;;;5011770;28;97284;-72
2022/06/12 23:12:32;;;;;;;4.97;2.15;;;;;;;;;;5015573;28;95164;-72
2022/06/12 23:14:58;;;;;;;7.18;2.17;;;;;;;;;;5005033;28;97069;-72
2022/06/12 23:17:25;;;;;;;7.43;2.75;;;;;;;;;;4993652;28;95163;-72
2022/06/12 23:19:51;;;;;;;5.18;2.40;;;;;;;;;;4993152;28;96545;-73
2022/06/12 23:22:17;;;;;;;6.10;2.72;;;;;;;;;;4992772;28;96212;-73
2022/06/12 23:24:44;;;;;;;6.53;2.20;;;;;;;;;;4995690;28;95408;-73
2022/06/12 23:27:10;;;;;;;4.40;2.35;;;;;;;;;;5013294;28;95799;-72
2022/06/12 23:29:36;;;;;;;3.85;2.30;;;;;;;;;;5009605;28;98389;-72
2022/06/12 23:32:03;;;;;;;3.55;2.10;;;;;;;;;;5011905;28;95577;-73
2022/06/12 23:34:29;;;;;;;4.20;2.28;;;;;;;;;;5015074;28;96783;-73
2022/06/12 23:36:56;;;;;;;3.65;2.28;;;;;;;;;;5013344;28;95339;-72
2022/06/12 23:39:22;;;;;;;3.97;2.35;;;;;;;;;;5011405;28;96696;-72
2022/06/12 23:41:48;;;;;;;7.88;2.50;;;;;;;;;;5009616;28;97524;-72
2022/06/12 23:44:14;;;;;;;6.18;2.40;;;;;;;;;;5012273;28;95345;-72
2022/06/12 23:46:51;;;;;;;5.50;2.28;;;;;;;;;;5013487;28;96524;-72
2022/06/12 23:49:17;;;;;;;5.25;2.50;;;;;;;;;;5009923;28;97568;-72
2022/06/12 23:51:43;;;;;;;4.35;2.25;;;;;;;;;;4994590;28;95365;-72
2022/06/12 23:54:10;;;;;;;5.13;2.58;;;;;;;;;;4992732;28;96568;-72
2022/06/12 23:56:36;;;;;;;4.72;2.50;;;;;;;;;;4995571;28;97455;-72
2022/06/12 23:59:02;;;;;;;4.32;2.60;;;;;;;;;;4993163;28;96511;-72
